Island Lookout — WDF6311 — position and weather

sailwx.info

Track history (hours):
 
Tides and Currents Weather Stations Pressure Air Temp Water Temp Dewpoint Dewpoint Depression Visibility Wind Speed Wind Dir Waves Ship Positions

Island Lookout

Owner: Stevens Towing Company Inc., Yonges Island, SC. More information available from US FCC via Universal Licensing System and Coast Guard Vessel Documentation Center.

Last reported at 2015-Mar-27 14:28 UTC. Time now 2015-Mar-28 09:25 UTC.
Position N 39°02' W 076°23'.

Length 22 m; draft 2.9 m.

Type: Towing. MMSI: 367472930.

Date/timePositionNaut miles runAvg speedWind from/ knotsBaromVisibWave heightAir tempDewpointWater temp
2015-Mar-27 14:28N 39°02' W 076°23'8 6.6
2015-Mar-27 13:12N 39°10' W 076°26'5 6.5
2015-Mar-27 12:27N 39°12' W 076°31'3 3.4
2015-Mar-27 11:33N 39°12' W 076°35'0 0.0
2015-Mar-27 10:34N 39°12' W 076°35'0 0.0
2015-Mar-27 09:31N 39°12' W 076°35'0 0.0
2015-Mar-27 08:33N 39°12' W 076°35'0 0.0
2015-Mar-27 07:33N 39°12' W 076°35'0 0.0
2015-Mar-27 06:34N 39°12' W 076°35'0 0.0
2015-Mar-27 05:34N 39°12' W 076°35'0 0.0
2015-Mar-27 04:34N 39°12' W 076°35'0 0.0
2015-Mar-27 03:34N 39°12' W 076°35'0 0.0
2015-Mar-27 02:33N 39°12' W 076°35'0 0.0
2015-Mar-27 01:34N 39°12' W 076°35'0 0.0
2015-Mar-27 00:33N 39°12' W 076°35'0 0.0
2015-Mar-26 23:33N 39°12' W 076°35'0 0.0
2015-Mar-26 22:34N 39°12' W 076°35'0 0.0
2015-Mar-26 21:34N 39°12' W 076°35'0 0.0
2015-Mar-26 20:34N 39°12' W 076°35'0 0.0
2015-Mar-26 19:33N 39°12' W 076°35'0 0.0
2015-Mar-26 18:34N 39°12' W 076°35'0 0.0
2015-Mar-26 17:34N 39°12' W 076°35'0 0.0
2015-Mar-26 16:33N 39°12' W 076°35'0 0.0
2015-Mar-26 15:33N 39°12' W 076°35'0 0.0
2015-Mar-26 14:33N 39°12' W 076°35'0 0.0
2015-Mar-26 13:34N 39°12' W 076°35'1 1.4
2015-Mar-26 12:34N 39°14' W 076°34'0 0.5
2015-Mar-26 11:34N 39°13' W 076°34'1 0.9
2015-Mar-26 10:34N 39°12' W 076°35'0 0.0
2015-Mar-26 09:33N 39°12' W 076°35'0 0.0
2015-Mar-26 08:34N 39°12' W 076°35'0 0.0
2015-Mar-26 07:33N 39°12' W 076°35'0 0.0
2015-Mar-26 06:34N 39°12' W 076°35'0 0.0
2015-Mar-26 05:33N 39°12' W 076°35'0 0.0
2015-Mar-26 04:34N 39°12' W 076°35'0 0.0
2015-Mar-26 03:34N 39°12' W 076°35'0 0.0
2015-Mar-26 02:34N 39°12' W 076°35'0 0.0
2015-Mar-26 01:33N 39°12' W 076°35'0 0.0
2015-Mar-26 00:34N 39°12' W 076°35'0 0.1
2015-Mar-25 23:34N 39°12' W 076°35'0 0.1
2015-Mar-25 22:34N 39°12' W 076°35'3 2.5
2015-Mar-25 21:33N 39°15' W 076°34'2 1.9
2015-Mar-25 20:33N 39°16' W 076°35'0 0.0
2015-Mar-25 19:34N 39°16' W 076°35'0 0.0
2015-Mar-25 18:34N 39°16' W 076°35'0 0.0
2015-Mar-25 17:33N 39°16' W 076°35'0 0.0
2015-Mar-25 16:34N 39°16' W 076°35'0 0.0
2015-Mar-25 15:34N 39°16' W 076°35'0 0.0
2015-Mar-25 14:34N 39°16' W 076°35'0 0.0
2015-Mar-25 13:34N 39°16' W 076°35'0 0.0
2015-Mar-25 12:33N 39°16' W 076°35'0 0.0
2015-Mar-25 11:34N 39°16' W 076°35'0 0.0
2015-Mar-25 10:33N 39°16' W 076°35'0 0.0
2015-Mar-25 09:33N 39°16' W 076°35'0 0.0
2015-Mar-25 08:34N 39°16' W 076°35'2 2.3
2015-Mar-25 07:33N 39°14' W 076°33'7 7.2
2015-Mar-25 06:33N 39°10' W 076°26'7 7.1
2015-Mar-25 05:34N 39°03' W 076°23'7 6.7
2015-Mar-25 04:34N 38°57' W 076°24'  
2015-Mar-19 09:25N 38°07' W 076°16'55 6.8
2015-Mar-19 01:18N 39°02' W 076°23'8 6.7
2015-Mar-19 00:06N 39°09' W 076°25'4 6.5
2015-Mar-18 23:33N 39°12' W 076°29'5 4.6
2015-Mar-18 22:34N 39°12' W 076°35'0 0.1
2015-Mar-18 21:34N 39°12' W 076°35'0 0.0
2015-Mar-18 20:33N 39°12' W 076°35'0 0.0
2015-Mar-18 19:34N 39°12' W 076°35'0 0.1
2015-Mar-18 18:33N 39°12' W 076°35'0 0.3
2015-Mar-18 17:33N 39°13' W 076°35'0 0.0
2015-Mar-18 16:33N 39°13' W 076°35'0 0.0
2015-Mar-18 15:32N 39°13' W 076°35'0 0.0
2015-Mar-18 14:33N 39°13' W 076°35'0 0.0
2015-Mar-18 13:34N 39°13' W 076°35'0 0.0
2015-Mar-18 12:33N 39°13' W 076°35'0 0.3
2015-Mar-18 11:33N 39°12' W 076°35'0 0.0
2015-Mar-18 10:33N 39°12' W 076°35'0 0.0
2015-Mar-18 09:34N 39°12' W 076°35'0 0.0
2015-Mar-18 08:34N 39°12' W 076°35'0 0.0
2015-Mar-18 07:34N 39°12' W 076°35'0 0.0
2015-Mar-18 06:33N 39°12' W 076°35'0 0.0
2015-Mar-18 05:34N 39°12' W 076°35'0 0.0
2015-Mar-18 04:34N 39°12' W 076°35'0 0.0
2015-Mar-18 03:34N 39°12' W 076°35'0 0.0
2015-Mar-18 02:33N 39°12' W 076°35'0 0.1
2015-Mar-18 01:33N 39°12' W 076°35'0 0.0
2015-Mar-18 00:34N 39°12' W 076°35'0 0.0
2015-Mar-17 23:34N 39°12' W 076°35'0 0.1
2015-Mar-17 22:34N 39°12' W 076°35'0 0.0
2015-Mar-17 21:33N 39°12' W 076°35'1 0.6
2015-Mar-17 20:33N 39°13' W 076°35'1 0.8
2015-Mar-17 19:34N 39°14' W 076°34'1 1.0
2015-Mar-17 18:33N 39°13' W 076°35'0 0.4
2015-Mar-17 17:33N 39°12' W 076°35'0 0.0
2015-Mar-17 16:33N 39°12' W 076°35'2 2.3
2015-Mar-17 15:34N 39°13' W 076°32'7 6.8
2015-Mar-17 14:34N 39°09' W 076°25'  
Track history (hours):
 
Tides and Currents Weather Stations Pressure Air Temp Water Temp Dewpoint Dewpoint Depression Visibility Wind Speed Wind Dir Waves Ship Positions

Island Lookout

Owner: Stevens Towing Company Inc., Yonges Island, SC. More information available from US FCC via Universal Licensing System and Coast Guard Vessel Documentation Center.

Last reported at 2015-Mar-27 14:28 UTC. Time now 2015-Mar-28 09:25 UTC.
Position N 39°02' W 076°23'.

Length 22 m; draft 2.9 m.

Type: Towing. MMSI: 367472930.

Date/timePositionNaut miles runAvg speedWind from/ knotsBaromVisibWave heightAir tempDewpointWater temp
2015-Mar-27 14:28N 39°02' W 076°23'8 6.6
2015-Mar-27 13:12N 39°10' W 076°26'5 6.5
2015-Mar-27 12:27N 39°12' W 076°31'3 3.4
2015-Mar-27 11:33N 39°12' W 076°35'0 0.0
2015-Mar-27 10:34N 39°12' W 076°35'0 0.0
2015-Mar-27 09:31N 39°12' W 076°35'0 0.0
2015-Mar-27 08:33N 39°12' W 076°35'0 0.0
2015-Mar-27 07:33N 39°12' W 076°35'0 0.0
2015-Mar-27 06:34N 39°12' W 076°35'0 0.0
2015-Mar-27 05:34N 39°12' W 076°35'0 0.0
2015-Mar-27 04:34N 39°12' W 076°35'0 0.0
2015-Mar-27 03:34N 39°12' W 076°35'0 0.0
2015-Mar-27 02:33N 39°12' W 076°35'0 0.0
2015-Mar-27 01:34N 39°12' W 076°35'0 0.0
2015-Mar-27 00:33N 39°12' W 076°35'0 0.0
2015-Mar-26 23:33N 39°12' W 076°35'0 0.0
2015-Mar-26 22:34N 39°12' W 076°35'0 0.0
2015-Mar-26 21:34N 39°12' W 076°35'0 0.0
2015-Mar-26 20:34N 39°12' W 076°35'0 0.0
2015-Mar-26 19:33N 39°12' W 076°35'0 0.0
2015-Mar-26 18:34N 39°12' W 076°35'0 0.0
2015-Mar-26 17:34N 39°12' W 076°35'0 0.0
2015-Mar-26 16:33N 39°12' W 076°35'0 0.0
2015-Mar-26 15:33N 39°12' W 076°35'0 0.0
2015-Mar-26 14:33N 39°12' W 076°35'0 0.0
2015-Mar-26 13:34N 39°12' W 076°35'1 1.4
2015-Mar-26 12:34N 39°14' W 076°34'0 0.5
2015-Mar-26 11:34N 39°13' W 076°34'1 0.9
2015-Mar-26 10:34N 39°12' W 076°35'0 0.0
2015-Mar-26 09:33N 39°12' W 076°35'0 0.0
2015-Mar-26 08:34N 39°12' W 076°35'0 0.0
2015-Mar-26 07:33N 39°12' W 076°35'0 0.0
2015-Mar-26 06:34N 39°12' W 076°35'0 0.0
2015-Mar-26 05:33N 39°12' W 076°35'0 0.0
2015-Mar-26 04:34N 39°12' W 076°35'0 0.0
2015-Mar-26 03:34N 39°12' W 076°35'0 0.0
2015-Mar-26 02:34N 39°12' W 076°35'0 0.0
2015-Mar-26 01:33N 39°12' W 076°35'0 0.0
2015-Mar-26 00:34N 39°12' W 076°35'0 0.1
2015-Mar-25 23:34N 39°12' W 076°35'0 0.1
2015-Mar-25 22:34N 39°12' W 076°35'3 2.5
2015-Mar-25 21:33N 39°15' W 076°34'2 1.9
2015-Mar-25 20:33N 39°16' W 076°35'0 0.0
2015-Mar-25 19:34N 39°16' W 076°35'0 0.0
2015-Mar-25 18:34N 39°16' W 076°35'0 0.0
2015-Mar-25 17:33N 39°16' W 076°35'0 0.0
2015-Mar-25 16:34N 39°16' W 076°35'0 0.0
2015-Mar-25 15:34N 39°16' W 076°35'0 0.0
2015-Mar-25 14:34N 39°16' W 076°35'0 0.0
2015-Mar-25 13:34N 39°16' W 076°35'0 0.0
2015-Mar-25 12:33N 39°16' W 076°35'0 0.0
2015-Mar-25 11:34N 39°16' W 076°35'0 0.0
2015-Mar-25 10:33N 39°16' W 076°35'0 0.0
2015-Mar-25 09:33N 39°16' W 076°35'0 0.0
2015-Mar-25 08:34N 39°16' W 076°35'2 2.3
2015-Mar-25 07:33N 39°14' W 076°33'7 7.2
2015-Mar-25 06:33N 39°10' W 076°26'7 7.1
2015-Mar-25 05:34N 39°03' W 076°23'7 6.7
2015-Mar-25 04:34N 38°57' W 076°24'  
2015-Mar-19 09:25N 38°07' W 076°16'55 6.8
2015-Mar-19 01:18N 39°02' W 076°23'8 6.7
2015-Mar-19 00:06N 39°09' W 076°25'4 6.5
2015-Mar-18 23:33N 39°12' W 076°29'5 4.6
2015-Mar-18 22:34N 39°12' W 076°35'0 0.1
2015-Mar-18 21:34N 39°12' W 076°35'0 0.0
2015-Mar-18 20:33N 39°12' W 076°35'0 0.0
2015-Mar-18 19:34N 39°12' W 076°35'0 0.1
2015-Mar-18 18:33N 39°12' W 076°35'0 0.3
2015-Mar-18 17:33N 39°13' W 076°35'0 0.0
2015-Mar-18 16:33N 39°13' W 076°35'0 0.0
2015-Mar-18 15:32N 39°13' W 076°35'0 0.0
2015-Mar-18 14:33N 39°13' W 076°35'0 0.0
2015-Mar-18 13:34N 39°13' W 076°35'0 0.0
2015-Mar-18 12:33N 39°13' W 076°35'0 0.3
2015-Mar-18 11:33N 39°12' W 076°35'0 0.0
2015-Mar-18 10:33N 39°12' W 076°35'0 0.0
2015-Mar-18 09:34N 39°12' W 076°35'0 0.0
2015-Mar-18 08:34N 39°12' W 076°35'0 0.0
2015-Mar-18 07:34N 39°12' W 076°35'0 0.0
2015-Mar-18 06:33N 39°12' W 076°35'0 0.0
2015-Mar-18 05:34N 39°12' W 076°35'0 0.0
2015-Mar-18 04:34N 39°12' W 076°35'0 0.0
2015-Mar-18 03:34N 39°12' W 076°35'0 0.0
2015-Mar-18 02:33N 39°12' W 076°35'0 0.1
2015-Mar-18 01:33N 39°12' W 076°35'0 0.0
2015-Mar-18 00:34N 39°12' W 076°35'0 0.0
2015-Mar-17 23:34N 39°12' W 076°35'0 0.1
2015-Mar-17 22:34N 39°12' W 076°35'0 0.0
2015-Mar-17 21:33N 39°12' W 076°35'1 0.6
2015-Mar-17 20:33N 39°13' W 076°35'1 0.8
2015-Mar-17 19:34N 39°14' W 076°34'1 1.0
2015-Mar-17 18:33N 39°13' W 076°35'0 0.4
2015-Mar-17 17:33N 39°12' W 076°35'0 0.0
2015-Mar-17 16:33N 39°12' W 076°35'2 2.3
2015-Mar-17 15:34N 39°13' W 076°32'7 6.8
2015-Mar-17 14:34N 39°09' W 076°25'  

Dump ship's entire track history